Terminal Aerodrome Forecast
Issued by NWS

Home | Current Version | Previous Version | Text Only | Print | Product List | Glossary On
Versions: 1 2 3 4 5 6 7 8 9 10 11 12
276
FTPA31 PHFO 290520
TAFHKO
TAF
PHKO 290520Z 2906/3006 VRB06KT P6SM SCT030 BKN060
     FM290700 10005KT P6SM SCT030 BKN060
     FM292000 27010KT P6SM FEW030 SCT060=

USA.gov is the U.S. government's official web portal to all federal, state and local government web resources and services.